createdAt,value
2022-07-27T00:01:54.960Z,1.97
2022-07-27T00:07:02.040Z,1.80
2022-07-27T00:12:08.996Z,2.10
2022-07-27T00:17:15.815Z,2.27
2022-07-27T00:22:23.273Z,2.10
2022-07-27T00:27:30.157Z,1.90
2022-07-27T00:32:37.019Z,1.90
2022-07-27T00:37:43.895Z,1.83
2022-07-27T00:42:50.807Z,1.70
2022-07-27T00:47:57.693Z,1.80
2022-07-27T00:53:05.245Z,1.90
2022-07-27T00:58:12.163Z,2.00
2022-07-27T01:03:19.127Z,1.70
2022-07-27T01:08:27.987Z,1.80
2022-07-27T01:13:36.166Z,1.80
2022-07-27T01:18:43.533Z,1.83
2022-07-27T01:23:50.389Z,2.00
2022-07-27T01:28:59.822Z,2.00
2022-07-27T01:34:08.118Z,2.00
2022-07-27T01:39:18.786Z,1.70
2022-07-27T01:44:25.837Z,1.83
2022-07-27T01:49:32.755Z,1.73
2022-07-27T01:54:39.683Z,2.00
2022-07-27T01:59:46.554Z,1.70
2022-07-27T02:04:53.459Z,1.60
2022-07-27T02:10:00.490Z,1.60
2022-07-27T02:15:08.620Z,1.70
2022-07-27T02:20:20.236Z,1.70
2022-07-27T02:25:27.108Z,1.60
2022-07-27T02:30:33.989Z,1.80
2022-07-27T02:35:40.902Z,1.77
2022-07-27T02:40:47.875Z,1.93
2022-07-27T02:45:54.834Z,1.77
2022-07-27T02:51:03.751Z,1.90
2022-07-27T02:56:11.128Z,1.90
2022-07-27T03:01:18.079Z,1.80
2022-07-27T03:06:25.031Z,2.10
2022-07-27T03:11:32.488Z,1.73
2022-07-27T03:16:39.782Z,1.70
2022-07-27T03:21:47.364Z,1.83
2022-07-27T03:26:54.233Z,1.80
2022-07-27T03:32:01.108Z,1.70
2022-07-27T03:37:07.971Z,1.60
2022-07-27T03:42:14.962Z,1.70
2022-07-27T03:47:21.849Z,1.90
2022-07-27T03:52:28.716Z,1.93
2022-07-27T03:57:35.602Z,1.63
2022-07-27T04:02:43.184Z,1.70
2022-07-27T04:07:54.938Z,1.97
2022-07-27T04:12:58.929Z,2.07
2022-07-27T04:18:06.350Z,1.77
2022-07-27T04:23:13.315Z,1.70
2022-07-27T04:28:20.271Z,1.90
2022-07-27T04:33:27.174Z,1.60
2022-07-27T04:38:34.070Z,1.70
2022-07-27T04:43:41.422Z,1.70
2022-07-27T04:48:48.974Z,1.60
2022-07-27T04:53:58.427Z,1.73
2022-07-27T04:59:05.571Z,1.50
2022-07-27T05:04:12.477Z,1.73
2022-07-27T05:09:22.366Z,1.97
2022-07-27T05:14:29.334Z,1.90
2022-07-27T05:19:40.417Z,1.73
2022-07-27T05:24:46.017Z,1.90
2022-07-27T05:29:53.040Z,1.97
2022-07-27T05:35:00.199Z,2.00
2022-07-27T05:40:09.029Z,1.90
2022-07-27T05:45:16.614Z,2.00
2022-07-27T05:50:23.868Z,1.70
2022-07-27T05:55:30.901Z,1.73
2022-07-27T06:00:37.819Z,1.73
2022-07-27T06:05:44.803Z,1.90
2022-07-27T06:10:52.107Z,1.90
2022-07-27T06:15:59.097Z,1.97
2022-07-27T06:21:07.377Z,2.03
2022-07-27T06:26:14.279Z,2.10
2022-07-27T06:31:21.407Z,2.27
2022-07-27T06:36:31.565Z,1.90
2022-07-27T06:41:38.596Z,2.13
2022-07-27T06:46:47.786Z,2.07
2022-07-27T06:51:54.715Z,2.20
2022-07-27T06:57:02.029Z,2.00
2022-07-27T07:02:08.862Z,2.20
2022-07-27T07:07:15.733Z,2.20
2022-07-27T07:12:22.791Z,1.87
2022-07-27T07:17:30.277Z,2.43
2022-07-27T07:22:37.549Z,2.13
2022-07-27T07:27:44.782Z,2.00
2022-07-27T07:32:52.199Z,2.13
2022-07-27T07:37:59.153Z,2.50
2022-07-27T07:43:06.754Z,2.20
2022-07-27T07:48:13.962Z,2.13
2022-07-27T07:53:22.439Z,2.10
2022-07-27T07:58:29.704Z,2.07
2022-07-27T08:03:36.520Z,2.00
2022-07-27T08:08:43.640Z,2.37
2022-07-27T08:13:51.074Z,2.03
2022-07-27T08:18:57.932Z,2.03
2022-07-27T08:24:05.297Z,1.93
2022-07-27T08:29:14.294Z,2.20
2022-07-27T08:34:21.023Z,2.10
2022-07-27T08:44:38.460Z,2.20
2022-07-27T08:49:49.453Z,2.00
2022-07-27T08:54:55.469Z,2.40
2022-07-27T09:00:05.579Z,2.20
2022-07-27T09:05:13.594Z,2.20
2022-07-27T09:10:23.574Z,2.40
2022-07-27T09:15:34.435Z,2.40
2022-07-27T09:20:39.593Z,2.23
2022-07-27T09:26:02.958Z,2.40
2022-07-27T09:30:55.963Z,2.50
2022-07-27T09:36:03.023Z,2.40
2022-07-27T09:41:13.377Z,2.30
2022-07-27T09:46:21.638Z,2.60
2022-07-27T09:51:59.465Z,2.60
2022-07-27T09:56:37.680Z,2.20
2022-07-27T10:01:49.920Z,2.60
2022-07-27T10:07:05.252Z,2.20
2022-07-27T10:12:04.959Z,2.30
2022-07-27T10:17:13.882Z,2.67
2022-07-27T10:22:23.732Z,2.53
2022-07-27T10:27:31.571Z,2.30
2022-07-27T10:32:40.117Z,2.50
2022-07-27T10:37:49.984Z,2.57
2022-07-27T10:42:59.870Z,2.50
2022-07-27T10:48:07.511Z,2.53
2022-07-27T10:53:16.931Z,2.50
2022-07-27T10:58:25.203Z,2.60
2022-07-27T11:03:34.496Z,3.00
2022-07-27T11:08:47.818Z,2.30
2022-07-27T11:13:57.599Z,3.37
2022-07-27T11:19:07.789Z,3.30
2022-07-27T11:24:19.093Z,2.80
2022-07-27T11:29:27.325Z,3.40
2022-07-27T11:34:37.008Z,3.43
2022-07-27T11:40:00.000Z,3.50
2022-07-27T11:44:53.562Z,3.37
2022-07-27T11:50:03.664Z,3.30
2022-07-27T11:55:12.393Z,3.20
2022-07-27T12:00:21.339Z,3.00
2022-07-27T12:05:28.866Z,2.90
2022-07-27T12:10:37.798Z,3.00
2022-07-27T12:15:47.248Z,3.07
2022-07-27T12:20:54.616Z,3.20
2022-07-27T12:26:04.598Z,2.97
2022-07-27T12:31:15.098Z,3.23
2022-07-27T12:36:25.170Z,3.53
2022-07-27T12:41:35.587Z,3.30
2022-07-27T12:46:47.703Z,2.90
2022-07-27T12:51:57.019Z,3.20
2022-07-27T12:57:05.320Z,3.10
2022-07-27T13:02:12.562Z,3.10
2022-07-27T13:07:21.336Z,3.17
2022-07-27T13:12:28.442Z,2.80
2022-07-27T13:17:37.193Z,3.10
2022-07-27T13:22:45.242Z,3.03
2022-07-27T13:27:52.686Z,3.00
2022-07-27T13:33:01.238Z,2.92
2022-07-27T13:38:09.208Z,3.23
2022-07-27T13:43:17.821Z,3.35
2022-07-27T13:48:25.643Z,2.95
2022-07-27T13:53:32.922Z,3.10
2022-07-27T13:58:41.265Z,2.90
2022-07-27T14:03:48.126Z,2.60
2022-07-27T14:08:56.279Z,3.00
2022-07-27T14:14:03.889Z,3.00
2022-07-27T14:19:12.917Z,3.00
2022-07-27T14:24:19.524Z,3.30
2022-07-27T14:29:26.771Z,2.90
2022-07-27T14:34:34.105Z,3.25
2022-07-27T14:39:41.004Z,3.20
2022-07-27T14:44:48.568Z,3.17
2022-07-27T14:49:55.716Z,2.60
2022-07-27T14:55:02.754Z,2.80
2022-07-27T15:00:13.623Z,2.80
2022-07-27T15:05:21.024Z,2.90
2022-07-27T15:10:28.613Z,2.90
2022-07-27T15:15:36.002Z,2.80
2022-07-27T15:20:44.638Z,2.75
2022-07-27T15:25:52.138Z,3.08
2022-07-27T15:30:59.149Z,2.75
2022-07-27T15:36:06.988Z,2.58
2022-07-27T15:41:14.557Z,2.70
2022-07-27T15:46:28.198Z,3.00
2022-07-27T15:51:35.548Z,2.83
2022-07-27T15:56:43.335Z,2.70
2022-07-27T16:01:50.463Z,2.47
2022-07-27T16:06:58.992Z,2.80
2022-07-27T16:12:06.324Z,2.55
2022-07-27T16:17:13.273Z,2.37
2022-07-27T16:22:20.321Z,2.80
2022-07-27T16:27:28.969Z,2.87
2022-07-27T16:32:36.075Z,2.60
2022-07-27T16:37:44.347Z,2.60
2022-07-27T16:42:52.053Z,2.57
2022-07-27T16:47:59.047Z,2.30
2022-07-27T16:53:07.630Z,2.63
2022-07-27T16:58:14.887Z,2.40
2022-07-27T17:03:22.986Z,2.50
2022-07-27T17:08:31.011Z,2.40
2022-07-27T17:13:39.604Z,2.30
2022-07-27T17:18:48.627Z,2.50
2022-07-27T17:23:55.730Z,2.63
2022-07-27T17:29:03.530Z,2.60
2022-07-27T17:34:10.825Z,2.60
2022-07-27T17:39:19.099Z,2.47
2022-07-27T17:44:25.988Z,2.73
2022-07-27T17:49:32.991Z,2.83
2022-07-27T17:54:41.825Z,2.37
2022-07-27T17:59:49.413Z,2.43
2022-07-27T18:04:57.056Z,2.40
2022-07-27T18:10:04.318Z,2.70
2022-07-27T18:15:13.209Z,2.50
2022-07-27T18:20:20.483Z,2.47
2022-07-27T18:25:27.425Z,2.50
2022-07-27T18:30:34.521Z,2.43
2022-07-27T18:35:43.291Z,2.40
2022-07-27T18:40:50.616Z,2.37
2022-07-27T18:45:57.683Z,2.20
2022-07-27T18:51:04.728Z,2.40
2022-07-27T18:56:12.327Z,2.50
2022-07-27T19:01:19.718Z,2.40
2022-07-27T19:06:27.196Z,2.30
2022-07-27T19:11:34.434Z,2.50
2022-07-27T19:16:41.499Z,2.20
2022-07-27T19:21:48.921Z,2.43
2022-07-27T19:26:55.979Z,2.27
2022-07-27T19:32:03.231Z,2.40
2022-07-27T19:37:11.110Z,2.20
2022-07-27T19:42:18.172Z,2.00
2022-07-27T19:47:25.843Z,2.13
2022-07-27T19:52:33.440Z,2.13
2022-07-27T19:57:40.620Z,2.10
2022-07-27T20:02:48.794Z,2.20
2022-07-27T20:07:56.027Z,2.50
2022-07-27T20:13:03.047Z,2.50
2022-07-27T20:18:11.634Z,2.60
2022-07-27T20:23:18.519Z,2.20
2022-07-27T20:28:25.415Z,2.50
2022-07-27T20:33:32.959Z,2.30
2022-07-27T20:38:40.005Z,2.20
2022-07-27T20:43:47.667Z,2.17
2022-07-27T20:48:54.614Z,2.47
2022-07-27T20:54:01.519Z,2.20
2022-07-27T20:59:16.844Z,2.20
2022-07-27T21:04:18.808Z,2.47
2022-07-27T21:09:25.737Z,2.40
2022-07-27T21:14:32.714Z,2.40
2022-07-27T21:19:39.813Z,2.20
2022-07-27T21:24:47.139Z,2.30
2022-07-27T21:29:55.710Z,2.40
2022-07-27T21:35:07.110Z,2.13
2022-07-27T21:40:11.889Z,2.50
2022-07-27T21:45:18.936Z,2.40
2022-07-27T21:50:26.120Z,2.57
2022-07-27T21:55:34.926Z,2.33
2022-07-27T22:00:42.032Z,2.27
2022-07-27T22:05:48.940Z,2.33
2022-07-27T22:10:55.920Z,2.53
2022-07-27T22:16:03.146Z,2.17
2022-07-27T22:21:10.056Z,2.20
2022-07-27T22:26:17.615Z,2.40
2022-07-27T22:31:24.511Z,2.33
2022-07-27T22:36:32.794Z,2.20
2022-07-27T22:41:39.597Z,2.20
2022-07-27T22:46:46.809Z,2.40
2022-07-27T22:51:54.609Z,2.37
2022-07-27T22:57:01.628Z,2.20
2022-07-27T23:02:09.073Z,2.50
2022-07-27T23:07:16.152Z,2.40
2022-07-27T23:12:23.000Z,2.17
2022-07-27T23:17:29.924Z,2.20
2022-07-27T23:22:37.178Z,2.33
2022-07-27T23:27:45.816Z,2.20
2022-07-27T23:32:54.682Z,2.60
2022-07-27T23:38:01.741Z,2.03
2022-07-27T23:43:08.584Z,2.40
2022-07-27T23:48:15.826Z,2.40
2022-07-27T23:53:24.104Z,2.40
2022-07-27T23:58:31.067Z,2.30
